LIBP/PSR METAR and TAF weather

Enter ICAO airport designator
Station Type Date Time Source
LIBP METAR 2022/06/25 22:50 UTC NOAA

LIBP 252250Z AUTO 24003KT 9999 NCD 20/16 Q1014


Station Type Date Time Source
LIBP Decoded METAR 2022/06/25 22:50 UTC NOAA

Pescara, Italy (LIBP) 42-26N 014-12E 11M
Jun 25, 2022 - 06:50 PM EDT / 2022.06.25 2250 UTC
Wind: from the WSW (240 degrees) at 3 MPH (3 KT):0
Visibility: greater than 7 mile(s):0
Temperature: 68 F (20 C)
Dew Point: 60 F (16 C)
Relative Humidity: 77%
Pressure (altimeter): 29.94 in. Hg (1014 hPa)
ob: LIBP 252250Z AUTO 24003KT 9999 NCD 20/16 Q1014
cycle: 23

Station Type Date Time Source
LIBP TAF 2022/06/25 18:31 UTC NOAA

TAF LIBP 251700Z 2518/2618 08010KT CAVOK
BECMG 2518/2520 22005KT
BECMG 2608/2610 06012KT

Example: see airport list